createdAt,value
2019-02-02T00:01:41.120Z,99.90
2019-02-02T00:04:10.396Z,99.90
2019-02-02T00:06:39.679Z,99.90
2019-02-02T00:09:09.452Z,99.90
2019-02-02T00:11:38.962Z,99.90
2019-02-02T00:14:08.586Z,99.90
2019-02-02T00:16:37.987Z,99.90
2019-02-02T00:19:09.201Z,99.90
2019-02-02T00:21:46.399Z,99.90
2019-02-02T00:24:16.112Z,99.90
2019-02-02T00:26:45.348Z,99.90
2019-02-02T00:29:15.061Z,99.90
2019-02-02T00:31:44.387Z,99.90
2019-02-02T00:34:13.556Z,99.90
2019-02-02T00:36:43.024Z,99.90
2019-02-02T00:39:12.614Z,99.90
2019-02-02T00:41:42.056Z,99.90
2019-02-02T00:44:11.672Z,99.90
2019-02-02T00:46:43.900Z,99.90
2019-02-02T00:49:13.708Z,99.90
2019-02-02T00:51:43.035Z,99.90
2019-02-02T00:54:12.379Z,99.90
2019-02-02T00:56:42.711Z,99.90
2019-02-02T00:59:12.053Z,99.90
2019-02-02T01:01:41.330Z,99.90
2019-02-02T01:04:11.164Z,99.90
2019-02-02T01:06:41.679Z,99.90
2019-02-02T01:09:14.021Z,99.90
2019-02-02T01:11:44.278Z,99.90
2019-02-02T01:14:14.078Z,99.90
2019-02-02T01:16:43.434Z,99.90
2019-02-02T01:19:12.758Z,99.90
2019-02-02T01:21:43.189Z,99.90
2019-02-02T01:24:12.657Z,99.90
2019-02-02T01:26:42.091Z,99.90
2019-02-02T01:29:11.528Z,99.90
2019-02-02T01:31:40.767Z,99.90
2019-02-02T01:34:10.018Z,99.90
2019-02-02T01:36:39.330Z,99.90
2019-02-02T01:39:08.873Z,99.90
2019-02-02T01:41:38.495Z,99.90
2019-02-02T01:44:08.183Z,99.90
2019-02-02T01:46:38.551Z,99.90
2019-02-02T01:49:08.914Z,99.90
2019-02-02T01:51:38.455Z,99.90
2019-02-02T01:54:07.957Z,99.90
2019-02-02T01:56:37.391Z,99.90
2019-02-02T01:59:06.676Z,99.90
2019-02-02T02:01:41.698Z,99.90
2019-02-02T02:04:10.923Z,99.90
2019-02-02T02:06:40.753Z,99.90
2019-02-02T02:09:10.519Z,99.90
2019-02-02T02:11:41.049Z,99.90
2019-02-02T02:14:10.598Z,99.90
2019-02-02T02:16:40.029Z,99.90
2019-02-02T02:19:09.511Z,99.90
2019-02-02T02:21:39.028Z,99.90
2019-02-02T02:24:08.494Z,99.90
2019-02-02T02:26:38.835Z,99.90
2019-02-02T02:29:08.144Z,99.90
2019-02-02T02:31:37.436Z,99.90
2019-02-02T02:34:06.602Z,99.90
2019-02-02T02:36:36.069Z,99.90
2019-02-02T02:39:07.979Z,99.90
2019-02-02T02:41:37.577Z,99.90
2019-02-02T02:44:07.124Z,99.90
2019-02-02T02:46:36.511Z,99.90
2019-02-02T02:49:06.049Z,99.90
2019-02-02T02:51:35.698Z,99.90
2019-02-02T02:54:05.868Z,99.90
2019-02-02T02:56:35.419Z,99.90
2019-02-02T02:59:05.040Z,99.90
2019-02-02T03:01:34.388Z,99.90
2019-02-02T03:04:04.564Z,99.90
2019-02-02T03:06:33.972Z,99.90
2019-02-02T03:09:04.828Z,99.90
2019-02-02T03:11:34.199Z,99.90
2019-02-02T03:14:04.369Z,99.90
2019-02-02T03:16:33.873Z,99.90
2019-02-02T03:19:03.348Z,99.90
2019-02-02T03:21:32.541Z,99.90
2019-02-02T03:24:01.957Z,99.90
2019-02-02T03:26:31.455Z,99.90
2019-02-02T03:29:01.831Z,99.90
2019-02-02T03:31:31.290Z,99.90
2019-02-02T03:34:00.804Z,99.90
2019-02-02T03:36:31.219Z,99.90
2019-02-02T03:39:00.761Z,99.90
2019-02-02T03:41:30.538Z,99.90
2019-02-02T03:44:00.899Z,99.90
2019-02-02T03:46:30.374Z,99.90
2019-02-02T03:48:59.875Z,99.90
2019-02-02T03:51:29.943Z,99.90
2019-02-02T03:54:08.175Z,99.90
2019-02-02T03:56:30.457Z,99.90
2019-02-02T03:59:06.784Z,99.90
2019-02-02T04:01:30.694Z,99.90
2019-02-02T04:03:59.869Z,99.90
2019-02-02T04:06:29.309Z,99.90
2019-02-02T04:08:58.795Z,99.90
2019-02-02T04:11:29.110Z,99.90
2019-02-02T04:13:58.314Z,99.90
2019-02-02T04:16:27.856Z,99.90
2019-02-02T04:18:57.615Z,99.90
2019-02-02T04:21:28.053Z,99.90
2019-02-02T04:23:57.459Z,99.90
2019-02-02T04:26:27.912Z,99.90
2019-02-02T04:28:57.478Z,99.90
2019-02-02T04:31:26.793Z,99.90
2019-02-02T04:33:56.299Z,99.90
2019-02-02T04:36:25.853Z,99.90
2019-02-02T04:38:55.330Z,99.90
2019-02-02T04:41:24.827Z,99.90
2019-02-02T04:43:55.182Z,99.90
2019-02-02T04:46:24.653Z,99.90
2019-02-02T04:48:55.808Z,99.90
2019-02-02T04:51:26.308Z,99.90
2019-02-02T04:53:58.115Z,99.90
2019-02-02T04:56:28.007Z,99.90
2019-02-02T04:58:57.538Z,99.90
2019-02-02T05:01:27.002Z,99.90
2019-02-02T05:04:04.683Z,99.90
2019-02-02T05:06:33.847Z,99.90
2019-02-02T05:09:04.997Z,99.90
2019-02-02T05:11:34.499Z,99.90
2019-02-02T05:14:05.051Z,99.90
2019-02-02T05:16:34.358Z,99.90
2019-02-02T05:19:04.724Z,99.90
2019-02-02T05:21:34.110Z,99.90
2019-02-02T05:24:04.994Z,99.90
2019-02-02T05:26:34.403Z,99.90
2019-02-02T05:29:04.299Z,99.90
2019-02-02T05:31:33.554Z,99.90
2019-02-02T05:34:03.524Z,99.90
2019-02-02T05:36:32.772Z,99.90
2019-02-02T05:39:02.631Z,99.90
2019-02-02T05:41:42.053Z,99.90
2019-02-02T05:44:11.534Z,99.90
2019-02-02T05:46:54.961Z,99.90
2019-02-02T05:49:24.201Z,99.90
2019-02-02T05:51:54.387Z,99.90
2019-02-02T05:54:26.834Z,99.90
2019-02-02T05:56:56.265Z,99.90
2019-02-02T05:59:29.210Z,99.90
2019-02-02T06:02:00.686Z,99.90
2019-02-02T06:04:30.123Z,99.90
2019-02-02T06:07:02.965Z,99.90
2019-02-02T06:09:35.300Z,99.90
2019-02-02T06:12:05.659Z,99.90
2019-02-02T06:14:35.104Z,99.90
2019-02-02T06:17:11.734Z,99.90
2019-02-02T06:19:41.889Z,99.90
2019-02-02T06:22:13.044Z,99.90
2019-02-02T06:24:44.631Z,99.90
2019-02-02T06:27:15.780Z,99.90
2019-02-02T06:29:45.399Z,99.90
2019-02-02T06:32:14.614Z,99.90
2019-02-02T06:34:45.078Z,99.90
2019-02-02T06:37:14.747Z,99.90
2019-02-02T06:39:44.094Z,99.90
2019-02-02T06:42:13.625Z,99.90
2019-02-02T06:44:43.093Z,99.90
2019-02-02T06:47:13.628Z,99.90
2019-02-02T06:49:43.325Z,99.90
2019-02-02T06:52:13.683Z,99.90
2019-02-02T06:54:43.187Z,99.90
2019-02-02T06:57:12.470Z,99.90
2019-02-02T06:59:42.177Z,99.90
2019-02-02T07:02:12.603Z,99.90
2019-02-02T07:04:42.406Z,99.90
2019-02-02T07:07:11.570Z,99.90
2019-02-02T07:09:41.067Z,99.90
2019-02-02T07:12:10.502Z,99.90
2019-02-02T07:14:39.720Z,99.90
2019-02-02T07:17:09.150Z,99.90
2019-02-02T07:19:38.619Z,99.90
2019-02-02T07:22:14.135Z,99.90
2019-02-02T07:24:43.419Z,99.90
2019-02-02T07:27:16.044Z,99.90
2019-02-02T07:29:52.910Z,99.90
2019-02-02T07:32:22.105Z,99.90
2019-02-02T07:34:51.262Z,99.90
2019-02-02T07:37:20.774Z,99.90
2019-02-02T07:39:50.235Z,99.90
2019-02-02T07:42:19.743Z,99.90
2019-02-02T07:44:49.025Z,99.90
2019-02-02T07:47:18.719Z,99.90
2019-02-02T07:49:47.971Z,99.90
2019-02-02T07:52:17.380Z,99.90
2019-02-02T07:54:46.922Z,99.90
2019-02-02T07:57:17.277Z,99.90
2019-02-02T07:59:46.712Z,99.90
2019-02-02T08:02:16.491Z,99.90
2019-02-02T08:04:45.787Z,99.90
2019-02-02T08:07:15.735Z,99.90
2019-02-02T08:09:45.173Z,99.90
2019-02-02T08:12:14.760Z,99.90
2019-02-02T08:14:44.985Z,99.90
2019-02-02T08:17:14.838Z,99.90
2019-02-02T08:19:44.003Z,99.90
2019-02-02T08:22:13.505Z,99.90
2019-02-02T08:24:42.964Z,99.90
2019-02-02T08:27:12.550Z,99.90
2019-02-02T08:29:42.011Z,99.90
2019-02-02T08:32:11.542Z,99.90
2019-02-02T08:34:41.131Z,99.90
2019-02-02T08:37:10.561Z,99.90
2019-02-02T08:39:40.155Z,99.90
2019-02-02T08:42:09.491Z,99.90
2019-02-02T08:44:38.787Z,99.90
2019-02-02T08:47:14.152Z,99.90
2019-02-02T08:49:44.596Z,99.90
2019-02-02T08:52:14.141Z,99.90
2019-02-02T08:54:43.571Z,99.90
2019-02-02T08:57:14.322Z,99.90
2019-02-02T08:59:44.676Z,99.90
2019-02-02T09:02:14.451Z,99.90
2019-02-02T09:04:43.846Z,99.90
2019-02-02T09:07:13.209Z,99.90
2019-02-02T09:09:42.672Z,99.90
2019-02-02T09:12:12.292Z,99.90
2019-02-02T09:14:41.664Z,99.90
2019-02-02T09:17:10.916Z,99.90
2019-02-02T09:19:46.045Z,99.90
2019-02-02T09:22:25.338Z,99.90
2019-02-02T09:24:58.656Z,99.90
2019-02-02T09:27:33.778Z,99.90
2019-02-02T09:30:03.373Z,99.90
2019-02-02T09:32:36.587Z,99.90
2019-02-02T09:35:07.611Z,99.90
2019-02-02T09:37:38.148Z,99.90
2019-02-02T09:40:13.235Z,99.90
2019-02-02T09:42:43.059Z,99.90
2019-02-02T09:45:15.155Z,99.90
2019-02-02T09:47:44.680Z,99.90
2019-02-02T09:50:23.068Z,99.90
2019-02-02T09:52:52.976Z,99.90
2019-02-02T09:55:24.559Z,99.90
2019-02-02T09:57:57.736Z,99.90
2019-02-02T10:00:29.710Z,99.90
2019-02-02T10:03:00.468Z,99.90
2019-02-02T10:05:31.646Z,99.90
2019-02-02T10:08:01.090Z,99.90
2019-02-02T10:10:32.995Z,99.90
2019-02-02T10:13:02.954Z,99.90
2019-02-02T10:15:33.283Z,99.90
2019-02-02T10:18:02.445Z,99.90
2019-02-02T10:20:32.195Z,99.90
2019-02-02T10:23:07.688Z,99.90
2019-02-02T10:25:37.043Z,99.90
2019-02-02T10:28:07.490Z,99.90
2019-02-02T10:30:41.904Z,99.90
2019-02-02T10:33:11.833Z,99.90
2019-02-02T10:35:41.029Z,99.90
2019-02-02T10:38:10.438Z,99.90
2019-02-02T10:40:39.873Z,99.90
2019-02-02T10:43:10.301Z,99.90
2019-02-02T10:45:43.819Z,99.90
2019-02-02T10:48:13.233Z,99.90
2019-02-02T10:50:48.543Z,99.90
2019-02-02T10:53:22.162Z,99.90
2019-02-02T10:55:52.410Z,99.90
2019-02-02T10:58:21.947Z,99.90
2019-02-02T11:00:51.491Z,99.90
2019-02-02T11:03:21.210Z,99.90
2019-02-02T11:05:50.458Z,99.90
2019-02-02T11:08:19.968Z,99.90
2019-02-02T11:10:50.385Z,99.90
2019-02-02T11:13:20.462Z,99.90
2019-02-02T11:15:52.326Z,99.90
2019-02-02T11:18:22.214Z,99.90
2019-02-02T11:20:51.778Z,99.90
2019-02-02T11:23:21.211Z,99.90
2019-02-02T11:25:50.592Z,99.90
2019-02-02T11:28:20.994Z,99.90
2019-02-02T11:30:52.308Z,99.80
2019-02-02T11:33:22.119Z,99.60
2019-02-02T11:35:51.514Z,99.50
2019-02-02T11:38:21.028Z,99.20
2019-02-02T11:40:51.813Z,99.00
2019-02-02T11:43:21.311Z,98.50
2019-02-02T11:45:50.864Z,98.60
2019-02-02T11:48:20.231Z,98.30
2019-02-02T11:50:50.054Z,98.20
2019-02-02T11:53:19.343Z,97.90
2019-02-02T11:55:48.799Z,97.60
2019-02-02T11:58:18.276Z,97.20
2019-02-02T12:00:47.741Z,96.80
2019-02-02T12:03:17.266Z,96.50
2019-02-02T12:05:46.862Z,96.50
2019-02-02T12:08:17.109Z,96.40
2019-02-02T12:10:46.591Z,96.30
2019-02-02T12:13:16.539Z,96.20
2019-02-02T12:15:46.145Z,95.80
2019-02-02T12:18:17.546Z,95.70
2019-02-02T12:20:46.733Z,95.30
2019-02-02T12:23:16.965Z,95.10
2019-02-02T12:25:46.207Z,94.50
2019-02-02T12:28:15.707Z,94.10
2019-02-02T12:30:45.159Z,93.70
2019-02-02T12:33:14.695Z,93.60
2019-02-02T12:35:44.134Z,93.50
2019-02-02T12:38:13.675Z,93.80
2019-02-02T12:40:43.102Z,93.50
2019-02-02T12:43:12.646Z,93.70
2019-02-02T12:45:45.342Z,94.30
2019-02-02T12:48:14.644Z,94.70
2019-02-02T12:50:44.140Z,94.90
2019-02-02T12:53:13.558Z,95.00
2019-02-02T12:55:42.993Z,95.20
2019-02-02T12:58:12.378Z,95.30
2019-02-02T13:00:44.291Z,95.30
2019-02-02T13:03:13.169Z,95.30
2019-02-02T13:05:43.501Z,95.40
2019-02-02T13:08:13.266Z,95.40
2019-02-02T13:10:42.492Z,95.10
2019-02-02T13:13:12.922Z,95.20
2019-02-02T13:15:42.313Z,95.00
2019-02-02T13:18:11.484Z,94.70
2019-02-02T13:20:40.964Z,94.50
2019-02-02T13:23:10.458Z,94.30
2019-02-02T13:25:39.949Z,94.10
2019-02-02T13:28:09.482Z,94.00
2019-02-02T13:30:39.047Z,94.10
2019-02-02T13:33:08.454Z,94.00
2019-02-02T13:35:38.399Z,93.90
2019-02-02T13:38:07.717Z,93.90
2019-02-02T13:40:37.095Z,93.90
2019-02-02T13:43:06.580Z,94.00
2019-02-02T13:45:35.981Z,94.30
2019-02-02T13:48:06.615Z,94.50
2019-02-02T13:50:35.873Z,94.80
2019-02-02T13:53:07.762Z,94.90
2019-02-02T13:55:39.831Z,95.20
2019-02-02T13:58:08.513Z,95.30
2019-02-02T14:00:38.063Z,95.40
2019-02-02T14:03:10.711Z,95.70
2019-02-02T14:05:39.903Z,95.70
2019-02-02T14:08:09.416Z,95.80
2019-02-02T14:10:38.887Z,95.80
2019-02-02T14:13:08.349Z,95.90
2019-02-02T14:15:39.411Z,96.00
2019-02-02T14:18:09.058Z,96.00
2019-02-02T14:20:38.500Z,96.10
2019-02-02T14:23:07.983Z,96.10
2019-02-02T14:25:37.142Z,96.20
2019-02-02T14:28:06.749Z,96.30
2019-02-02T14:30:36.219Z,96.30
2019-02-02T14:33:13.852Z,96.40
2019-02-02T14:35:38.407Z,96.60
2019-02-02T14:38:07.947Z,96.60
2019-02-02T14:40:37.419Z,96.70
2019-02-02T14:43:07.069Z,96.70
2019-02-02T14:45:36.548Z,96.70
2019-02-02T14:48:06.200Z,96.80
2019-02-02T14:50:35.550Z,96.80
2019-02-02T14:53:05.753Z,96.90
2019-02-02T14:55:35.250Z,97.00
2019-02-02T14:58:07.787Z,96.90
2019-02-02T15:00:37.198Z,96.90
2019-02-02T15:03:06.754Z,96.90
2019-02-02T15:05:43.129Z,96.90
2019-02-02T15:08:09.002Z,96.90
2019-02-02T15:10:38.417Z,96.80
2019-02-02T15:13:07.726Z,96.80
2019-02-02T15:15:38.238Z,96.80
2019-02-02T15:18:07.761Z,96.70
2019-02-02T15:20:40.859Z,96.70
2019-02-02T15:23:10.274Z,96.70
2019-02-02T15:25:40.785Z,96.60
2019-02-02T15:28:10.453Z,96.50
2019-02-02T15:30:39.792Z,96.50
2019-02-02T15:33:08.958Z,96.50
2019-02-02T15:35:38.504Z,96.40
2019-02-02T15:38:07.882Z,96.30
2019-02-02T15:40:37.115Z,96.60
2019-02-02T15:43:06.912Z,96.30
2019-02-02T15:45:36.069Z,96.40
2019-02-02T15:48:05.634Z,96.30
2019-02-02T15:50:35.198Z,96.30
2019-02-02T15:53:04.646Z,96.30
2019-02-02T15:55:36.053Z,96.30
2019-02-02T15:58:06.728Z,96.40
2019-02-02T16:00:39.197Z,96.30
2019-02-02T16:03:10.721Z,96.40
2019-02-02T16:05:41.908Z,96.40
2019-02-02T16:08:12.454Z,96.50
2019-02-02T16:10:41.888Z,96.50
2019-02-02T16:13:11.248Z,96.50
2019-02-02T16:15:40.855Z,96.60
2019-02-02T16:18:10.362Z,96.70
2019-02-02T16:20:45.977Z,96.70
2019-02-02T16:23:15.669Z,96.80
2019-02-02T16:25:44.956Z,96.80
2019-02-02T16:28:16.959Z,96.80
2019-02-02T16:30:46.406Z,96.80
2019-02-02T16:33:19.203Z,96.90
2019-02-02T16:35:48.668Z,96.80
2019-02-02T16:38:18.169Z,96.80
2019-02-02T16:40:47.397Z,96.80
2019-02-02T16:43:16.806Z,96.80
2019-02-02T16:45:46.321Z,96.80
2019-02-02T16:48:15.817Z,96.80
2019-02-02T16:50:45.423Z,96.90
2019-02-02T16:53:14.922Z,97.00
2019-02-02T16:55:46.471Z,97.00
2019-02-02T16:58:15.914Z,97.00
2019-02-02T17:00:45.829Z,97.00
2019-02-02T17:03:15.702Z,97.00
2019-02-02T17:05:45.483Z,97.10
2019-02-02T17:08:14.720Z,97.00
2019-02-02T17:10:44.451Z,97.00
2019-02-02T17:13:14.150Z,97.00
2019-02-02T17:15:43.579Z,97.00
2019-02-02T17:18:12.743Z,97.00
2019-02-02T17:20:43.431Z,97.10
2019-02-02T17:23:13.813Z,97.10
2019-02-02T17:25:43.347Z,97.10
2019-02-02T17:28:14.992Z,97.10
2019-02-02T17:30:44.324Z,97.20
2019-02-02T17:33:32.767Z,97.10
2019-02-02T17:36:02.347Z,97.20
2019-02-02T17:38:31.669Z,97.30
2019-02-02T17:41:01.322Z,97.40
2019-02-02T17:43:30.728Z,97.30
2019-02-02T17:46:01.117Z,97.40
2019-02-02T17:48:30.507Z,97.40
2019-02-02T17:50:59.800Z,97.40
2019-02-02T17:53:29.128Z,97.40
2019-02-02T17:55:58.621Z,97.50
2019-02-02T17:58:39.004Z,97.60
2019-02-02T18:00:59.991Z,97.70
2019-02-02T18:03:29.252Z,97.80
2019-02-02T18:05:58.862Z,98.20
2019-02-02T18:08:28.268Z,98.00
2019-02-02T18:10:58.510Z,98.00
2019-02-02T18:13:27.721Z,98.00
2019-02-02T18:15:57.497Z,98.10
2019-02-02T18:18:26.657Z,98.10
2019-02-02T18:20:56.279Z,98.10
2019-02-02T18:23:25.621Z,98.10
2019-02-02T18:25:54.799Z,98.20
2019-02-02T18:28:24.285Z,98.30
2019-02-02T18:30:53.736Z,98.30
2019-02-02T18:33:24.066Z,98.30
2019-02-02T18:35:53.315Z,98.40
2019-02-02T18:38:22.655Z,98.40
2019-02-02T18:40:52.237Z,98.50
2019-02-02T18:43:21.714Z,98.60
2019-02-02T18:45:51.322Z,98.70
2019-02-02T18:48:20.762Z,98.60
2019-02-02T18:50:50.025Z,98.70
2019-02-02T18:53:19.283Z,98.80
2019-02-02T18:55:51.691Z,98.90
2019-02-02T18:58:21.205Z,98.90
2019-02-02T19:00:50.747Z,98.90
2019-02-02T19:03:20.172Z,98.90
2019-02-02T19:05:50.562Z,99.10
2019-02-02T19:08:20.001Z,99.10
2019-02-02T19:10:49.150Z,99.20
2019-02-02T19:13:18.638Z,99.20
2019-02-02T19:15:48.571Z,99.20
2019-02-02T19:18:18.027Z,99.20
2019-02-02T19:20:47.301Z,99.30
2019-02-02T19:23:24.831Z,99.30
2019-02-02T19:25:47.775Z,99.30
2019-02-02T19:28:17.237Z,99.50
2019-02-02T19:30:46.520Z,99.30
2019-02-02T19:33:22.963Z,99.40
2019-02-02T19:35:52.431Z,99.50
2019-02-02T19:38:21.870Z,99.50
2019-02-02T19:40:51.418Z,99.60
2019-02-02T19:43:20.647Z,99.50
2019-02-02T19:45:49.987Z,99.50
2019-02-02T19:48:29.512Z,99.60
2019-02-02T19:50:58.891Z,99.60
2019-02-02T19:53:28.327Z,99.70
2019-02-02T19:55:57.862Z,99.70
2019-02-02T19:58:27.312Z,99.80
2019-02-02T20:00:57.698Z,99.80
2019-02-02T20:03:28.148Z,99.90
2019-02-02T20:05:59.527Z,99.90
2019-02-02T20:08:28.759Z,99.90
2019-02-02T20:10:59.408Z,99.90
2019-02-02T20:13:28.863Z,99.90
2019-02-02T20:15:58.358Z,99.90
2019-02-02T20:18:27.637Z,99.90
2019-02-02T20:20:57.101Z,99.90
2019-02-02T20:23:26.612Z,99.90
2019-02-02T20:25:56.044Z,99.90
2019-02-02T20:28:25.471Z,99.90
2019-02-02T20:30:55.114Z,99.90
2019-02-02T20:33:30.691Z,99.90
2019-02-02T20:36:00.130Z,99.90
2019-02-02T20:38:29.299Z,99.90
2019-02-02T20:40:58.906Z,99.90
2019-02-02T20:43:28.243Z,99.90
2019-02-02T20:45:57.427Z,99.90
2019-02-02T20:48:26.892Z,99.90
2019-02-02T20:50:56.525Z,99.90
2019-02-02T20:53:25.843Z,99.90
2019-02-02T20:55:55.112Z,99.90
2019-02-02T20:58:25.891Z,99.90
2019-02-02T21:00:55.191Z,99.90
2019-02-02T21:03:30.608Z,99.90
2019-02-02T21:05:59.951Z,99.90
2019-02-02T21:08:29.518Z,99.90
2019-02-02T21:10:59.110Z,99.90
2019-02-02T21:13:28.444Z,99.90
2019-02-02T21:15:57.755Z,99.90
2019-02-02T21:18:27.086Z,99.90
2019-02-02T21:20:57.474Z,99.90
2019-02-02T21:23:26.972Z,99.90
2019-02-02T21:25:56.511Z,99.90
2019-02-02T21:28:25.971Z,99.90
2019-02-02T21:30:55.418Z,99.90
2019-02-02T21:33:24.952Z,99.90
2019-02-02T21:36:03.506Z,99.90
2019-02-02T21:38:26.512Z,99.90
2019-02-02T21:40:56.281Z,99.90
2019-02-02T21:43:25.867Z,99.90
2019-02-02T21:45:55.620Z,99.90
2019-02-02T21:48:24.951Z,99.90
2019-02-02T21:50:54.379Z,99.90
2019-02-02T21:53:23.869Z,99.90
2019-02-02T21:55:53.847Z,99.90
2019-02-02T21:58:23.298Z,99.90
2019-02-02T22:00:55.590Z,99.90
2019-02-02T22:03:25.231Z,99.90
2019-02-02T22:05:54.623Z,99.90
2019-02-02T22:08:25.059Z,99.90
2019-02-02T22:10:54.504Z,99.90
2019-02-02T22:13:24.414Z,99.90
2019-02-02T22:15:54.827Z,99.90
2019-02-02T22:18:24.349Z,99.90
2019-02-02T22:20:54.098Z,99.90
2019-02-02T22:23:23.654Z,99.90
2019-02-02T22:25:53.246Z,99.90
2019-02-02T22:28:23.633Z,99.90
2019-02-02T22:30:52.947Z,99.90
2019-02-02T22:33:23.714Z,99.90
2019-02-02T22:35:53.200Z,99.90
2019-02-02T22:38:22.758Z,99.90
2019-02-02T22:40:52.254Z,99.90
2019-02-02T22:43:21.717Z,99.90
2019-02-02T22:45:50.950Z,99.90
2019-02-02T22:48:20.392Z,99.90
2019-02-02T22:50:50.631Z,99.90
2019-02-02T22:53:20.211Z,99.90
2019-02-02T22:55:49.746Z,99.90
2019-02-02T22:58:19.147Z,99.90
2019-02-02T23:00:58.054Z,99.90
2019-02-02T23:03:48.442Z,99.90
2019-02-02T23:06:42.091Z,99.90
2019-02-02T23:09:25.816Z,99.90
2019-02-02T23:12:16.193Z,99.90
2019-02-02T23:14:57.140Z,99.90
2019-02-02T23:17:27.796Z,99.90
2019-02-02T23:20:00.286Z,99.90
2019-02-02T23:22:28.412Z,99.90
2019-02-02T23:24:58.314Z,99.90
2019-02-02T23:27:27.744Z,99.90
2019-02-02T23:29:56.991Z,99.90
2019-02-02T23:32:26.409Z,99.90
2019-02-02T23:34:55.865Z,99.90
2019-02-02T23:37:25.443Z,99.90
2019-02-02T23:39:54.916Z,99.90
2019-02-02T23:42:24.380Z,99.90
2019-02-02T23:44:53.895Z,99.90
2019-02-02T23:47:23.886Z,99.90
2019-02-02T23:49:55.347Z,99.90
2019-02-02T23:52:24.526Z,99.90
2019-02-02T23:54:53.985Z,99.90
2019-02-02T23:57:23.461Z,99.90
2019-02-02T23:59:53.775Z,99.90
